Time;durP1;ratioP1;P1;durP2;ratioP2;P2;SDS_P1;SDS_P2;PMS_P1;PMS_P2;Temp;Humidity;BMP_temperature;BMP_pressure;BME280_temperature;BME280_humidity;BME280_pressure;Samples;Min_cycle;Max_cycle;Signal;HPM_P1;HPM_P2
2022/01/26 00:06:36;;;;;;;12.35;4.90;;;20.10;54.10;;;;;;4398415;32;20098;-65
2022/01/26 00:09:05;;;;;;;15.75;5.15;;;20.00;54.00;;;;;;4398076;32;20078;-65
2022/01/26 00:11:31;;;;;;;16.58;5.43;;;20.10;54.10;;;;;;4398196;32;20205;-65
2022/01/26 00:14:02;;;;;;;17.05;5.43;;;20.10;54.10;;;;;;4398295;32;20067;-65
2022/01/26 00:19:03;;;;;;;10.27;5.05;;;20.00;54.10;;;;;;4397807;32;20075;-65
2022/01/26 00:21:52;;;;;;;13.35;5.13;;;20.00;54.20;;;;;;4398240;32;20105;-65
2022/01/26 00:29:31;;;;;;;9.82;4.72;;;19.90;54.10;;;;;;4392976;32;20119;-65
2022/01/26 00:42:52;;;;;;;12.98;4.75;;;19.80;54.20;;;;;;4398126;32;20224;-65
2022/01/26 00:45:22;;;;;;;9.73;4.25;;;19.80;54.20;;;;;;4397805;32;20171;-65
2022/01/26 00:47:48;;;;;;;11.68;4.80;;;19.80;54.30;;;;;;4397761;32;20234;-65
2022/01/26 00:50:16;;;;;;;10.73;4.78;;;19.80;54.30;;;;;;4384405;32;20268;-65
2022/01/26 00:52:45;;;;;;;11.18;4.47;;;19.70;54.30;;;;;;4400770;32;20071;-65
2022/01/26 00:55:20;;;;;;;13.30;5.03;;;19.80;54.30;;;;;;4400838;32;20264;-65
2022/01/26 00:57:47;;;;;;;10.55;4.65;;;19.70;54.30;;;;;;4400410;32;20102;-65
2022/01/26 01:00:21;;;;;;;7.93;4.75;;;19.70;54.30;;;;;;4400690;32;20157;-65
2022/01/26 01:02:48;;;;;;;11.48;4.32;;;19.70;55.20;;;;;;4400705;32;20520;-65
2022/01/26 01:05:27;;;;;;;7.47;4.25;;;19.70;54.30;;;;;;4400434;32;20095;-65
2022/01/26 01:08:01;;;;;;;12.57;5.50;;;19.70;54.30;;;;;;4387221;32;20079;-65
2022/01/26 01:10:27;;;;;;;8.73;4.40;;;19.60;54.30;;;;;;4387707;32;20778;-65
2022/01/26 01:12:58;;;;;;;11.85;5.10;;;19.60;54.30;;;;;;4400667;32;20083;-65
2022/01/26 01:15:26;;;;;;;8.20;4.45;;;19.60;54.30;;;;;;4400421;32;20067;-65
2022/01/26 01:17:57;;;;;;;9.60;5.03;;;19.60;54.30;;;;;;4386736;32;20075;-65
2022/01/26 01:31:28;;;;;;;11.63;4.50;;;19.50;54.40;;;;;;4400509;32;20094;-65
2022/01/26 01:33:54;;;;;;;8.95;4.90;;;19.50;54.40;;;;;;4400688;32;20125;-65
2022/01/26 01:36:21;;;;;;;10.23;4.53;;;19.50;54.40;;;;;;4386244;32;20181;-65
2022/01/26 01:38:48;;;;;;;8.98;4.15;;;19.50;54.40;;;;;;4400496;32;20506;-65
2022/01/26 01:41:14;;;;;;;8.07;4.38;;;19.50;54.50;;;;;;4380143;32;20529;-65
2022/01/26 01:43:39;;;;;;;9.63;4.55;;;19.40;54.50;;;;;;4400205;32;20075;-65
2022/01/26 01:46:06;;;;;;;10.40;4.38;;;19.40;54.50;;;;;;4386526;32;20075;-65
2022/01/26 01:48:33;;;;;;;7.78;4.05;;;19.40;54.50;;;;;;4399840;32;20852;-65
2022/01/26 01:51:04;;;;;;;8.75;4.65;;;19.40;54.50;;;;;;4400405;32;20521;-65
2022/01/26 01:53:42;;;;;;;7.90;4.20;;;19.40;54.50;;;;;;4400113;32;20129;-64
2022/01/26 01:56:11;;;;;;;9.60;4.32;;;19.40;54.50;;;;;;4399858;32;20091;-65
2022/01/26 01:58:37;;;;;;;9.15;4.13;;;19.40;54.60;;;;;;4399649;32;20125;-65
2022/01/26 02:01:04;;;;;;;6.85;4.43;;;19.30;54.50;;;;;;4399702;32;20574;-65
2022/01/26 02:03:30;;;;;;;12.20;5.03;;;19.30;54.50;;;;;;4398903;32;20217;-65
2022/01/26 02:05:56;;;;;;;8.18;4.68;;;19.30;54.50;;;;;;4399691;32;20104;-65
2022/01/26 02:08:22;;;;;;;7.93;4.70;;;19.30;54.50;;;;;;4399764;32;20095;-65
2022/01/26 02:10:48;;;;;;;10.52;4.70;;;19.30;54.50;;;;;;4399601;32;20071;-65
2022/01/26 02:13:22;;;;;;;8.05;4.40;;;19.30;54.60;;;;;;4399729;32;20454;-65
2022/01/26 02:16:08;;;;;;;10.85;4.43;;;19.30;54.60;;;;;;4400156;32;20077;-65
2022/01/26 03:02:25;;;;;;;7.63;4.70;;;19.00;54.50;;;;;;4399680;32;20232;-65
2022/01/26 03:04:54;;;;;;;6.65;4.53;;;19.00;54.50;;;;;;4399690;32;20095;-65
2022/01/26 03:07:34;;;;;;;6.38;4.95;;;19.00;54.50;;;;;;4399184;32;20083;-65
2022/01/26 03:10:08;;;;;;;9.88;4.80;;;19.00;54.50;;;;;;4399441;32;20087;-65
2022/01/26 03:13:24;;;;;;;10.98;4.85;;;19.00;54.50;;;;;;4398750;32;20708;-65
2022/01/26 03:15:33;;;;;;;7.50;4.60;;;19.00;55.40;;;;;;4388284;32;20402;-64
2022/01/26 03:18:21;;;;;;;8.18;4.50;;;18.90;54.40;;;;;;4398968;32;20181;-65
2022/01/26 03:20:47;;;;;;;6.63;4.80;;;18.90;54.50;;;;;;4398662;32;20150;-65
2022/01/26 03:28:48;;;;;;;8.05;4.53;;;18.90;54.50;;;;;;4398517;32;20095;-65
2022/01/26 03:36:31;;;;;;;9.07;5.07;;;18.80;54.40;;;;;;4398870;32;20512;-65
2022/01/26 03:39:07;;;;;;;7.35;4.47;;;18.90;54.50;;;;;;4398391;32;20181;-65
2022/01/26 03:41:41;;;;;;;6.18;4.65;;;18.80;54.40;;;;;;4398396;32;20478;-65
2022/01/26 03:44:08;;;;;;;7.13;5.00;;;18.80;54.50;;;;;;4398902;32;20063;-65
2022/01/26 03:46:34;;;;;;;8.57;4.53;;;18.80;54.50;;;;;;4397906;32;20142;-65
2022/01/26 03:49:01;;;;;;;7.20;5.03;;;18.80;54.50;;;;;;4398628;32;20095;-65
2022/01/26 03:51:27;;;;;;;6.78;4.65;;;18.80;54.50;;;;;;4397441;32;20085;-65
2022/01/26 03:53:53;;;;;;;6.63;4.72;;;18.80;54.50;;;;;;4398633;32;20083;-65
2022/01/26 03:56:19;;;;;;;7.63;4.78;;;18.80;54.50;;;;;;4398432;32;20479;-65
2022/01/26 03:58:45;;;;;;;5.78;4.70;;;18.80;54.50;;;;;;4397831;32;20134;-65
2022/01/26 04:01:11;;;;;;;8.05;5.32;;;18.80;54.50;;;;;;4398329;32;20055;-65
2022/01/26 04:03:36;;;;;;;6.90;4.47;;;18.80;54.50;;;;;;4398435;32;20106;-65
2022/01/26 04:06:02;;;;;;;5.95;4.55;;;18.80;54.50;;;;;;4398458;32;20157;-65
2022/01/26 04:08:31;;;;;;;7.53;5.35;;;18.70;54.40;;;;;;4398236;32;20154;-65
2022/01/26 04:13:42;;;;;;;7.43;4.68;;;18.70;54.50;;;;;;4398501;32;20071;-65
2022/01/26 04:16:08;;;;;;;7.63;5.05;;;18.70;54.40;;;;;;4398655;32;20187;-65
2022/01/26 04:18:38;;;;;;;8.65;5.00;;;18.70;54.40;;;;;;4398174;32;20085;-65
2022/01/26 04:21:26;;;;;;;7.03;4.53;;;18.70;54.50;;;;;;4398237;32;20506;-65
2022/01/26 04:23:58;;;;;;;6.47;5.00;;;18.70;54.40;;;;;;4398350;32;20257;-65
2022/01/26 04:27:35;;;;;;;7.88;5.13;;;18.70;54.50;;;;;;4400382;32;20130;-65
2022/01/26 04:29:27;;;;;;;7.63;4.93;;;18.70;54.40;;;;;;4391081;32;20224;-65
2022/01/26 04:31:53;;;;;;;6.38;4.65;;;18.60;54.40;;;;;;4401225;32;20074;-65
2022/01/26 04:34:20;;;;;;;7.80;4.90;;;18.60;54.40;;;;;;4401372;32;20087;-65
2022/01/26 04:36:53;;;;;;;6.15;5.20;;;18.60;54.40;;;;;;4401162;32;20106;-65
2022/01/26 04:39:25;;;;;;;6.10;4.93;;;18.60;54.40;;;;;;4388344;32;20225;-65
2022/01/26 04:41:56;;;;;;;7.25;5.40;;;18.60;54.40;;;;;;4401086;32;20106;-65
2022/01/26 04:44:25;;;;;;;5.28;4.38;;;18.60;54.40;;;;;;4401486;32;20217;-65
2022/01/26 04:46:52;;;;;;;7.10;5.38;;;18.60;54.30;;;;;;4400738;32;20102;-65
2022/01/26 04:49:18;;;;;;;6.70;5.05;;;18.60;54.30;;;;;;4401240;32;20086;-65
2022/01/26 04:51:44;;;;;;;8.75;5.45;;;18.60;54.30;;;;;;4400573;32;20089;-65
2022/01/26 04:54:11;;;;;;;7.30;5.40;;;18.60;54.30;;;;;;4400704;32;20230;-65
2022/01/26 04:56:37;;;;;;;7.43;5.72;;;18.60;54.30;;;;;;4400776;32;20279;-65
2022/01/26 04:59:04;;;;;;;7.93;5.38;;;18.50;54.20;;;;;;4400361;32;20153;-65
2022/01/26 05:01:30;;;;;;;9.43;5.00;;;18.50;54.20;;;;;;4400577;32;20522;-65
2022/01/26 05:03:56;;;;;;;6.85;5.35;;;18.50;54.20;;;;;;4400497;32;20098;-65
2022/01/26 05:06:21;;;;;;;7.78;5.57;;;18.50;54.20;;;;;;4400775;32;20133;-65
2022/01/26 05:08:47;;;;;;;6.07;5.38;;;18.50;54.20;;;;;;4400405;32;20071;-65
2022/01/26 05:11:19;;;;;;;7.53;5.00;;;18.50;54.20;;;;;;4400909;32;20065;-65
2022/01/26 05:13:45;;;;;;;9.43;5.57;;;18.50;54.20;;;;;;4400616;32;20137;-65
2022/01/26 05:16:11;;;;;;;5.70;4.68;;;18.50;54.20;;;;;;4400683;32;20406;-65
2022/01/26 05:18:37;;;;;;;8.23;5.68;;;18.50;54.20;;;;;;4400365;32;20121;-65
2022/01/26 05:21:03;;;;;;;7.88;5.28;;;18.50;54.20;;;;;;4400664;32;20418;-65
2022/01/26 05:23:29;;;;;;;6.95;5.13;;;18.40;54.10;;;;;;4400524;32;20154;-65
2022/01/26 05:25:55;;;;;;;6.70;5.00;;;18.40;54.10;;;;;;4400417;32;20099;-65
2022/01/26 05:28:21;;;;;;;7.15;5.25;;;18.40;54.10;;;;;;4400470;32;20529;-65
2022/01/26 05:30:49;;;;;;;6.55;4.65;;;18.40;54.10;;;;;;4400300;32;20094;-65
2022/01/26 05:33:15;;;;;;;6.45;5.15;;;18.40;54.10;;;;;;4386673;32;20175;-65
2022/01/26 05:35:42;;;;;;;8.35;5.57;;;18.40;54.10;;;;;;4399883;32;20516;-65
2022/01/26 05:38:08;;;;;;;7.45;5.22;;;18.40;54.20;;;;;;4400418;32;20087;-65
2022/01/26 05:40:34;;;;;;;9.25;5.43;;;18.40;54.20;;;;;;4400184;32;20087;-65
2022/01/26 05:43:00;;;;;;;7.05;5.25;;;18.40;54.20;;;;;;4400137;32;20087;-65
2022/01/26 05:45:34;;;;;;;6.22;4.70;;;18.40;54.10;;;;;;4400482;32;20093;-65
2022/01/26 05:48:03;;;;;;;7.18;5.22;;;18.40;54.20;;;;;;4400513;32;20451;-65
2022/01/26 05:50:31;;;;;;;6.63;4.90;;;18.40;54.20;;;;;;4400235;32;20216;-65
2022/01/26 05:52:57;;;;;;;7.80;5.00;;;18.40;54.20;;;;;;4400095;32;20105;-65
2022/01/26 05:55:23;;;;;;;5.78;4.53;;;18.30;54.10;;;;;;4400015;32;20118;-65
2022/01/26 05:57:48;;;;;;;7.28;5.57;;;18.30;54.10;;;;;;4399760;32;20510;-64
2022/01/26 06:00:15;;;;;;;6.43;4.70;;;18.30;54.10;;;;;;4386471;32;20153;-65
2022/01/26 06:02:41;;;;;;;6.43;4.55;;;18.30;54.20;;;;;;4385924;32;20063;-65
2022/01/26 06:05:08;;;;;;;5.55;4.63;;;18.30;54.20;;;;;;4399726;32;20094;-65
2022/01/26 06:07:34;;;;;;;7.45;4.70;;;18.30;54.20;;;;;;4400097;32;20255;-65
2022/01/26 06:10:00;;;;;;;6.20;5.03;;;18.30;54.20;;;;;;4399364;32;20421;-65
2022/01/26 06:12:28;;;;;;;7.25;4.90;;;18.30;54.20;;;;;;4400037;32;20085;-65
2022/01/26 06:14:53;;;;;;;6.10;4.88;;;18.30;54.20;;;;;;4399195;32;20079;-65
2022/01/26 06:17:19;;;;;;;6.05;4.90;;;18.30;54.20;;;;;;4399983;32;20205;-65
2022/01/26 06:19:45;;;;;;;7.13;4.95;;;18.30;54.20;;;;;;4399517;32;20568;-65
2022/01/26 06:22:11;;;;;;;6.78;4.95;;;18.30;54.20;;;;;;4399475;32;20376;-65
2022/01/26 06:24:37;;;;;;;6.95;5.07;;;18.20;54.10;;;;;;4399898;32;20118;-65
2022/01/26 06:27:03;;;;;;;6.13;4.53;;;18.20;54.10;;;;;;4385984;32;20085;-65
2022/01/26 06:29:30;;;;;;;7.07;5.07;;;18.30;54.20;;;;;;4399814;32;20134;-65
2022/01/26 06:31:57;;;;;;;6.45;5.10;;;18.20;54.10;;;;;;4399338;32;20079;-65
2022/01/26 06:34:23;;;;;;;6.78;5.13;;;18.20;54.10;;;;;;4399803;32;20071;-65
2022/01/26 06:36:49;;;;;;;6.88;4.88;;;18.20;54.10;;;;;;4399479;32;20390;-65
2022/01/26 06:39:15;;;;;;;7.15;5.40;;;18.20;54.10;;;;;;4399595;32;20103;-65
2022/01/26 06:41:48;;;;;;;7.75;5.22;;;18.20;54.10;;;;;;4399802;32;20524;-65
2022/01/26 06:44:27;;;;;;;7.10;5.00;;;18.20;54.10;;;;;;4399741;32;20067;-65
2022/01/26 06:49:37;;;;;;;16.33;11.27;;;18.10;54.10;;;;;;4387237;32;20093;-65
2022/01/26 06:52:03;;;;;;;23.90;14.98;;;18.10;53.60;;;;;;4398874;32;20402;-65
2022/01/26 06:54:29;;;;;;;29.20;19.05;;;18.10;52.50;;;;;;4399354;32;20078;-65
2022/01/26 06:56:56;;;;;;;30.10;18.85;;;18.00;51.50;;;;;;4384645;32;20123;-65
2022/01/26 06:59:24;;;;;;;23.70;15.68;;;18.00;51.10;;;;;;4399237;32;20102;-65
2022/01/26 07:01:50;;;;;;;24.95;15.55;;;18.00;51.60;;;;;;4398928;32;20141;-65
2022/01/26 07:04:17;;;;;;;23.60;15.90;;;18.00;51.90;;;;;;4399171;32;20138;-65
2022/01/26 07:06:43;;;;;;;22.85;15.23;;;18.00;52.10;;;;;;4399185;32;20075;-65
2022/01/26 07:09:09;;;;;;;23.73;15.73;;;17.90;52.10;;;;;;4399065;32;20083;-65
2022/01/26 07:11:35;;;;;;;23.08;14.23;;;17.90;52.20;;;;;;4399062;32;20087;-65
2022/01/26 07:14:02;;;;;;;20.33;14.00;;;17.90;52.20;;;;;;4385011;32;20094;-65
2022/01/26 07:21:57;;;;;;;21.73;14.40;;;18.00;52.40;;;;;;4398864;32;20544;-65
2022/01/26 07:24:23;;;;;;;20.17;13.77;;;17.90;52.30;;;;;;4398896;32;20083;-65
2022/01/26 07:26:53;;;;;;;19.58;13.38;;;18.00;52.30;;;;;;4398784;32;20168;-65
2022/01/26 07:29:22;;;;;;;21.33;12.95;;;18.00;52.30;;;;;;4398934;32;20087;-65
2022/01/26 07:31:50;;;;;;;18.58;13.07;;;18.10;52.30;;;;;;4398691;32;20086;-64
2022/01/26 07:34:20;;;;;;;20.42;11.85;;;18.10;52.20;;;;;;4398497;32;20098;-65
2022/01/26 07:36:48;;;;;;;16.90;11.63;;;18.10;51.90;;;;;;4398939;32;20137;-64
2022/01/26 07:39:18;;;;;;;18.80;11.80;;;18.20;51.80;;;;;;4398272;32;20636;-65
2022/01/26 07:41:44;;;;;;;17.23;11.43;;;18.30;51.50;;;;;;4398394;32;20071;-65
2022/01/26 07:44:10;;;;;;;15.23;10.73;;;18.40;51.20;;;;;;4398477;32;20091;-64
2022/01/26 07:46:36;;;;;;;13.98;9.38;;;18.60;50.90;;;;;;4398784;32;20162;-65
2022/01/26 07:49:02;;;;;;;15.07;9.45;;;18.70;50.50;;;;;;4398494;32;20595;-65
2022/01/26 07:51:28;;;;;;;12.35;9.00;;;18.80;50.30;;;;;;4398646;32;20086;-65
2022/01/26 07:53:54;;;;;;;13.40;8.10;;;18.90;50.00;;;;;;4398384;32;20111;-65
2022/01/26 07:56:20;;;;;;;12.20;8.05;;;19.00;49.80;;;;;;4384773;32;20079;-65
2022/01/26 07:58:48;;;;;;;10.60;7.63;;;19.20;49.60;;;;;;4398214;32;20185;-64
2022/01/26 08:01:15;;;;;;;10.05;7.20;;;19.30;49.30;;;;;;4398109;32;20161;-65
2022/01/26 08:03:41;;;;;;;10.23;7.63;;;19.40;49.10;;;;;;4398425;32;20098;-64
2022/01/26 08:06:10;;;;;;;24.95;7.47;;;19.50;48.80;;;;;;4397749;32;20079;-64
2022/01/26 08:08:36;;;;;;;10.70;6.10;;;19.60;48.50;;;;;;4398290;32;20115;-64
2022/01/26 08:11:02;;;;;;;9.93;5.95;;;19.70;48.20;;;;;;4397880;32;20075;-65
2022/01/26 08:13:28;;;;;;;9.00;5.85;;;19.90;48.00;;;;;;4398623;32;20075;-64
2022/01/26 08:15:57;;;;;;;9.43;5.93;;;19.90;47.80;;;;;;4398284;32;20082;-64
2022/01/26 08:18:25;;;;;;;9.65;5.28;;;20.10;47.70;;;;;;4398167;32;20090;-64
2022/01/26 08:20:52;;;;;;;9.25;5.60;;;20.10;47.50;;;;;;4398088;32;20078;-64
2022/01/26 08:23:20;;;;;;;10.43;6.07;;;20.20;47.30;;;;;;4397573;32;20083;-64
2022/01/26 08:25:47;;;;;;;7.60;5.20;;;20.30;47.20;;;;;;4398158;32;20137;-64
2022/01/26 08:28:21;;;;;;;6.90;5.47;;;20.40;47.00;;;;;;4397542;32;20086;-65
2022/01/26 08:30:46;;;;;;;5.93;4.90;;;20.40;46.90;;;;;;4398161;32;20133;-65
2022/01/26 08:33:13;;;;;;;6.05;4.65;;;20.40;46.90;;;;;;4397946;32;20160;-65
2022/01/26 08:35:41;;;;;;;7.65;5.07;;;20.40;47.00;;;;;;4398218;32;20209;-65
2022/01/26 08:38:07;;;;;;;6.57;5.00;;;20.40;47.10;;;;;;4397559;32;20090;-65
2022/01/26 08:40:33;;;;;;;7.45;4.75;;;20.30;47.10;;;;;;4397699;32;20075;-65
2022/01/26 08:43:00;;;;;;;7.22;4.90;;;20.30;47.20;;;;;;4397825;32;20184;-65
2022/01/26 08:45:28;;;;;;;8.23;5.22;;;20.30;47.30;;;;;;4397741;32;20071;-65
2022/01/26 08:47:53;;;;;;;7.43;4.80;;;20.30;47.40;;;;;;4398030;32;20090;-64
2022/01/26 08:50:19;;;;;;;9.40;4.75;;;20.20;47.30;;;;;;4397959;32;20071;-65
2022/01/26 08:52:45;;;;;;;5.97;4.68;;;20.20;47.40;;;;;;4398111;32;20103;-65
2022/01/26 08:55:11;;;;;;;6.80;4.22;;;20.20;47.50;;;;;;4397383;32;20082;-65
2022/01/26 08:57:37;;;;;;;6.68;4.80;;;20.20;47.50;;;;;;4398027;32;20119;-65
2022/01/26 09:00:07;;;;;;;6.82;4.50;;;20.20;47.70;;;;;;4397478;32;20529;-65
2022/01/26 09:02:34;;;;;;;6.03;4.63;;;20.20;47.80;;;;;;4398094;32;20083;-64
2022/01/26 09:05:00;;;;;;;6.63;4.78;;;20.20;47.90;;;;;;4397838;32;20082;-65
2022/01/26 09:07:28;;;;;;;9.02;4.97;;;20.10;47.80;;;;;;4397182;32;20186;-65
2022/01/26 09:09:55;;;;;;;6.47;4.88;;;20.10;47.80;;;;;;4398171;32;20063;-65
2022/01/26 09:12:24;;;;;;;6.72;4.47;;;20.10;47.80;;;;;;4399771;32;20090;-65
2022/01/26 09:14:50;;;;;;;6.40;4.70;;;20.10;47.90;;;;;;4400846;32;20129;-65
2022/01/26 09:17:16;;;;;;;6.20;5.00;;;20.10;47.90;;;;;;4400267;32;20099;-65
2022/01/26 09:19:44;;;;;;;7.68;5.43;;;20.10;47.90;;;;;;4400617;32;20078;-66
2022/01/26 09:22:13;;;;;;;7.57;5.13;;;20.10;47.90;;;;;;4400678;32;20075;-65
2022/01/26 09:24:41;;;;;;;7.22;4.70;;;20.10;47.80;;;;;;4386725;32;20085;-65
2022/01/26 09:27:09;;;;;;;7.72;4.88;;;20.10;47.90;;;;;;4386889;32;20076;-65
2022/01/26 09:29:36;;;;;;;7.10;4.68;;;20.10;47.90;;;;;;4400468;32;20071;-65
2022/01/26 09:32:04;;;;;;;13.70;6.13;;;20.10;47.80;;;;;;4400179;32;20149;-66
2022/01/26 09:34:35;;;;;;;7.72;5.07;;;20.10;47.90;;;;;;4400219;32;20087;-65
2022/01/26 09:37:05;;;;;;;10.90;4.88;;;20.10;48.00;;;;;;4400773;32;20165;-65
2022/01/26 09:39:31;;;;;;;7.45;4.90;;;20.10;48.20;;;;;;4400089;32;20106;-65
2022/01/26 09:41:57;;;;;;;7.97;4.82;;;20.10;48.30;;;;;;4400457;32;20067;-65
2022/01/26 09:44:23;;;;;;;7.13;5.20;;;20.10;48.30;;;;;;4399569;32;20079;-65
2022/01/26 09:46:49;;;;;;;9.90;4.70;;;20.20;48.40;;;;;;4400289;32;20082;-65
2022/01/26 09:49:17;;;;;;;8.52;4.57;;;20.20;48.50;;;;;;4399921;32;20075;-65
2022/01/26 09:51:47;;;;;;;12.55;5.50;;;20.20;48.50;;;;;;4400195;32;20193;-65
2022/01/26 09:54:15;;;;;;;5.82;4.40;;;20.20;48.60;;;;;;4397502;32;20137;-65
2022/01/26 09:56:47;;;;;;;9.18;5.07;;;20.20;48.60;;;;;;4399617;32;20098;-65
2022/01/26 09:59:15;;;;;;;7.30;4.57;;;20.20;48.60;;;;;;4398813;32;20422;-65
2022/01/26 10:01:49;;;;;;;10.05;5.50;;;20.20;48.70;;;;;;4399791;32;20170;-65
2022/01/26 10:04:28;;;;;;;10.48;5.07;;;20.20;48.80;;;;;;4393559;32;20059;-65
2022/01/26 10:07:26;;;;;;;6.60;4.85;;;20.20;48.80;;;;;;4399554;32;20145;-65
2022/01/26 10:10:08;;;;;;;11.30;5.65;;;20.20;48.70;;;;;;4399597;32;20087;-65
2022/01/26 10:18:02;;;;;;;10.18;5.20;;;20.20;49.80;;;;;;4399717;32;20075;-65
2022/01/26 10:20:43;;;;;;;12.30;5.25;;;20.20;48.90;;;;;;4399770;32;20077;-65
2022/01/26 10:23:17;;;;;;;8.43;5.20;;;20.20;48.90;;;;;;4397875;32;20094;-65
2022/01/26 10:25:46;;;;;;;9.63;5.13;;;20.20;48.90;;;;;;4398547;32;20075;-65
2022/01/26 10:28:14;;;;;;;10.32;5.35;;;20.20;48.90;;;;;;4399861;32;20168;-65
2022/01/26 10:30:45;;;;;;;11.25;5.47;;;20.30;49.00;;;;;;4399598;32;20173;-65
2022/01/26 10:33:12;;;;;;;11.90;5.57;;;20.20;49.00;;;;;;4399666;32;20087;-64
2022/01/26 10:35:38;;;;;;;8.30;4.90;;;20.20;48.90;;;;;;4398884;32;20103;-65
2022/01/26 10:38:05;;;;;;;13.85;5.65;;;20.20;49.00;;;;;;4399388;32;20083;-65
2022/01/26 10:40:32;;;;;;;8.88;5.95;;;20.20;49.00;;;;;;4399356;32;20510;-65
2022/01/26 10:43:08;;;;;;;9.23;5.80;;;20.20;49.00;;;;;;4399640;32;20078;-64
2022/01/26 10:45:47;;;;;;;10.30;5.70;;;20.20;49.10;;;;;;4399357;32;20105;-64
2022/01/26 10:48:31;;;;;;;7.72;4.95;;;20.20;49.10;;;;;;4399415;32;20384;-64
2022/01/26 10:53:55;;;;;;;10.93;5.53;;;20.20;49.10;;;;;;4398717;32;20087;-63
2022/01/26 10:56:21;;;;;;;10.18;5.28;;;20.20;49.20;;;;;;4400631;32;20170;-64
2022/01/26 10:58:47;;;;;;;10.27;5.28;;;20.20;49.10;;;;;;4398725;32;20157;-65
2022/01/26 11:01:13;;;;;;;9.82;5.43;;;20.20;49.20;;;;;;4399481;32;20090;-63
2022/01/26 11:03:39;;;;;;;10.68;6.22;;;20.10;49.10;;;;;;4398892;32;20404;-63
2022/01/26 11:06:06;;;;;;;15.07;5.85;;;20.10;49.10;;;;;;4399057;32;20102;-65
2022/01/26 11:08:39;;;;;;;11.05;6.45;;;20.10;49.10;;;;;;4398180;32;20095;-65
2022/01/26 11:11:06;;;;;;;;;;;20.00;49.00;;;;;;4400071;32;20126;-65
2022/01/26 11:13:36;;;;;;;9.57;6.20;;;20.00;49.10;;;;;;4398675;32;19982;-65
2022/01/26 11:16:07;;;;;;;10.98;6.82;;;19.90;49.30;;;;;;4398835;32;20209;-65
2022/01/26 11:18:47;;;;;;;10.38;6.28;;;19.90;49.40;;;;;;4398658;32;20082;-65
2022/01/26 11:21:33;;;;;;;12.32;6.10;;;19.80;49.50;;;;;;4385537;32;20099;-65
2022/01/26 11:24:21;;;;;;;10.02;6.47;;;19.80;49.70;;;;;;4399122;32;20087;-64
2022/01/26 11:26:49;;;;;;;10.23;6.63;;;19.70;49.90;;;;;;4398431;32;20502;-64
2022/01/26 11:29:23;;;;;;;10.40;6.20;;;19.60;50.00;;;;;;4398306;32;20075;-65
2022/01/26 11:32:05;;;;;;;12.80;6.10;;;19.60;50.20;;;;;;4398779;32;20071;-63
2022/01/26 11:34:33;;;;;;;20.73;6.07;;;19.60;50.30;;;;;;4380930;32;20071;-63
2022/01/26 11:37:02;;;;;;;11.75;6.20;;;19.60;50.40;;;;;;4398011;32;20507;-64
2022/01/26 11:42:34;;;;;;;14.57;6.20;;;19.70;50.20;;;;;;4397691;32;20086;-63
2022/01/26 11:45:15;;;;;;;13.40;5.95;;;19.70;50.20;;;;;;4398690;32;20082;-63
2022/01/26 11:47:56;;;;;;;8.13;5.05;;;19.80;50.20;;;;;;4398286;32;20075;-63
2022/01/26 11:50:23;;;;;;;11.60;5.32;;;19.90;50.20;;;;;;4398767;32;20106;-64
2022/01/26 11:53:08;;;;;;;12.15;5.32;;;19.90;50.10;;;;;;4398209;32;20102;-64
2022/01/26 11:55:35;;;;;;;12.77;5.65;;;20.00;50.10;;;;;;4397997;32;20087;-63
2022/01/26 11:58:26;;;;;;;20.80;6.03;;;20.00;50.00;;;;;;4398495;32;20474;-63
2022/01/26 12:03:42;;;;;;;14.02;5.72;;;20.10;50.10;;;;;;4398355;32;20145;-63
2022/01/26 12:06:16;;;;;;;14.57;5.97;;;20.10;50.20;;;;;;4398397;32;20087;-63
2022/01/26 12:08:42;;;;;;;14.02;5.90;;;20.10;50.20;;;;;;4394626;32;20090;-64
2022/01/26 12:11:10;;;;;;;11.70;5.50;;;20.10;50.30;;;;;;4396884;32;20071;-64
2022/01/26 12:13:38;;;;;;;10.13;5.72;;;20.10;50.40;;;;;;4397817;32;20273;-64
2022/01/26 12:16:24;;;;;;;12.55;5.60;;;20.10;50.50;;;;;;4398551;32;20071;-63
2022/01/26 12:43:53;;;;;;;13.15;6.28;;;20.30;51.80;;;;;;4371815;32;20076;-64
2022/01/26 12:46:30;;;;;;;12.45;6.72;;;20.20;50.80;;;;;;4398476;32;20162;-63
2022/01/26 12:49:13;;;;;;;17.58;8.38;;;20.30;50.80;;;;;;4401000;32;20071;-64
2022/01/26 12:51:51;;;;;;;20.35;10.48;;;20.20;50.50;;;;;;4400377;32;20087;-64
2022/01/26 12:54:18;;;;;;;21.02;11.07;;;20.20;50.20;;;;;;4400495;32;20114;-64
2022/01/26 12:56:44;;;;;;;23.38;12.45;;;20.20;49.80;;;;;;4386013;32;20088;-64
2022/01/26 12:59:17;;;;;;;20.95;12.98;;;20.20;50.40;;;;;;4385093;32;20126;-64
2022/01/26 13:01:45;;;;;;;21.33;12.70;;;20.20;49.20;;;;;;4400708;32;20396;-64
2022/01/26 13:04:14;;;;;;;26.58;13.13;;;20.10;48.70;;;;;;4400727;32;20091;-64
2022/01/26 13:06:48;;;;;;;26.67;13.20;;;20.10;48.30;;;;;;4386904;32;20098;-64
2022/01/26 13:09:29;;;;;;;21.48;11.40;;;20.10;48.30;;;;;;4374594;32;20391;-64
2022/01/26 13:11:59;;;;;;;23.63;10.88;;;20.10;48.30;;;;;;4400622;32;20109;-64
2022/01/26 13:14:32;;;;;;;23.33;10.25;;;20.10;48.30;;;;;;4400802;32;20082;-64
2022/01/26 13:17:32;;;;;;;21.95;10.77;;;20.10;49.20;;;;;;4400528;32;20067;-65
2022/01/26 13:28:32;;;;;;;24.35;8.95;;;20.10;48.60;;;;;;4400663;32;20083;-64
2022/01/26 13:31:29;;;;;;;14.68;7.63;;;20.10;48.40;;;;;;4399972;32;20099;-64
2022/01/26 13:44:57;;;;;;;17.55;8.93;;;20.10;49.00;;;;;;4400973;32;20196;-64
2022/01/26 13:50:25;;;;;;;19.30;7.25;;;20.20;49.20;;;;;;4385289;32;20503;-64
2022/01/26 13:53:02;;;;;;;22.20;7.93;;;20.20;49.30;;;;;;4400282;32;20157;-64
2022/01/26 14:00:43;;;;;;;14.35;7.13;;;20.20;49.10;;;;;;4399304;32;20129;-64
2022/01/26 14:03:12;;;;;;;15.52;6.90;;;20.10;49.10;;;;;;4397479;32;20079;-65
2022/01/26 14:05:38;;;;;;;16.75;7.20;;;20.20;49.10;;;;;;4397990;32;20098;-65
2022/01/26 14:08:04;;;;;;;16.92;6.95;;;20.20;50.10;;;;;;4384950;32;20055;-65
2022/01/26 14:10:30;;;;;;;11.75;6.43;;;20.20;49.30;;;;;;4399108;32;20648;-64
2022/01/26 14:12:56;;;;;;;13.65;6.47;;;20.20;49.20;;;;;;4398585;32;20082;-65
2022/01/26 14:15:34;;;;;;;22.30;7.18;;;20.20;49.40;;;;;;4399194;32;20185;-64
2022/01/26 14:18:37;;;;;;;12.93;5.97;;;20.20;49.60;;;;;;4397295;32;20079;-65
2022/01/26 14:23:55;;;;;;;17.00;6.55;;;20.20;50.00;;;;;;4399187;32;20217;-64
2022/01/26 14:26:24;;;;;;;16.38;6.93;;;20.20;50.10;;;;;;4397998;32;20083;-64
2022/01/26 14:28:50;;;;;;;20.73;6.85;;;20.20;50.10;;;;;;4398633;32;20501;-64
2022/01/26 15:19:38;;;;;;;14.52;5.18;;;20.20;51.30;;;;;;4397910;32;20269;-64
2022/01/26 15:44:18;;;;;;;10.77;4.45;;;20.10;51.40;;;;;;4398622;32;20078;-64
2022/01/26 15:52:35;;;;;;;16.25;5.38;;;20.10;51.40;;;;;;4397821;32;20081;-63
2022/01/26 16:06:08;;;;;;;15.18;5.35;;;20.10;51.00;;;;;;4398076;32;20075;-63
2022/01/26 16:16:51;;;;;;;12.50;5.45;;;20.10;50.70;;;;;;4386336;32;20094;-63
2022/01/26 16:36:06;;;;;;;12.93;5.18;;;19.80;50.70;;;;;;4398038;32;20083;-63
2022/01/26 16:39:09;;;;;;;9.98;4.85;;;19.80;50.80;;;;;;4397392;32;20413;-64
2022/01/26 18:31:50;;;;;;;10.75;4.30;;;20.50;51.00;;;;;;4399716;32;20138;-63
2022/01/26 18:32:54;;;;;;;14.70;4.07;;;20.50;51.20;;;;;;4398766;32;20154;-63
2022/01/26 18:46:24;;;;;;;7.43;3.85;;;20.50;52.20;;;;;;4398548;32;20478;-63
2022/01/26 18:51:40;;;;;;;8.93;4.45;;;20.50;51.20;;;;;;4386258;32;20087;-64
2022/01/26 18:54:07;;;;;;;6.95;3.78;;;20.50;51.20;;;;;;4385902;32;20089;-63
2022/01/26 18:56:35;;;;;;;8.23;3.92;;;20.50;51.20;;;;;;4385016;32;20071;-64
2022/01/26 18:59:01;;;;;;;6.10;3.60;;;20.50;51.10;;;;;;4383859;32;20083;-63
2022/01/26 19:01:28;;;;;;;7.28;4.07;;;20.50;51.10;;;;;;4369244;32;20173;-64
2022/01/26 19:03:54;;;;;;;6.72;3.60;;;20.60;51.30;;;;;;4383569;32;20083;-64
2022/01/26 19:06:20;;;;;;;9.48;4.05;;;20.60;51.00;;;;;;4385358;32;20078;-63
2022/01/26 19:08:46;;;;;;;6.35;3.58;;;20.60;50.90;;;;;;4383371;32;20095;-63
2022/01/26 19:11:12;;;;;;;7.00;3.58;;;20.60;50.80;;;;;;4383315;32;20641;-64
2022/01/26 19:13:41;;;;;;;6.82;3.40;;;20.60;50.80;;;;;;4382725;32;20300;-63
2022/01/26 19:16:23;;;;;;;5.03;3.25;;;20.70;50.80;;;;;;4369708;32;20080;-63
2022/01/26 19:26:34;;;;;;;6.15;3.30;;;20.70;50.50;;;;;;4382913;32;20178;-63
2022/01/26 19:30:01;;;;;;;8.70;3.60;;;20.70;50.50;;;;;;4383260;32;20217;-64
2022/01/26 19:45:08;;;;;;;6.55;3.33;;;20.70;50.30;;;;;;4399068;32;20090;-64
2022/01/26 19:52:46;;;;;;;6.15;3.42;;;20.70;50.40;;;;;;4398597;32;20162;-63
2022/01/26 19:55:13;;;;;;;5.15;2.95;;;20.70;50.30;;;;;;4397817;32;20083;-63
2022/01/26 19:57:41;;;;;;;6.50;3.17;;;20.70;50.30;;;;;;4398108;32;20085;-63
2022/01/26 20:00:07;;;;;;;7.28;3.30;;;20.70;50.20;;;;;;4398251;32;20097;-63
2022/01/26 20:02:33;;;;;;;7.57;3.40;;;20.70;50.20;;;;;;4384638;32;20086;-63
2022/01/26 20:04:59;;;;;;;6.80;3.08;;;20.70;50.20;;;;;;4398518;32;20406;-63